createdAt,value
2019-06-08T00:00:08.811Z,131.90
2019-06-08T00:01:09.197Z,131.02
2019-06-08T00:02:09.605Z,131.31
2019-06-08T00:03:09.999Z,132.16
2019-06-08T00:04:10.353Z,131.45
2019-06-08T00:05:10.760Z,131.12
2019-06-08T00:06:12.480Z,132.35
2019-06-08T00:07:12.960Z,131.57
2019-06-08T00:08:12.979Z,132.02
2019-06-08T00:09:12.997Z,130.90
2019-06-08T00:10:12.776Z,131.28
2019-06-08T00:11:13.054Z,131.07
2019-06-08T00:12:13.438Z,130.97
2019-06-08T00:13:15.099Z,130.90
2019-06-08T00:14:15.147Z,131.43
2019-06-08T00:15:14.664Z,131.17
2019-06-08T00:16:15.245Z,131.42
2019-06-08T00:17:29.244Z,131.35
2019-06-08T00:18:17.356Z,132.10
2019-06-08T00:19:17.317Z,131.04
2019-06-08T00:20:17.709Z,132.30
2019-06-08T00:21:17.603Z,131.75
2019-06-08T00:22:17.676Z,131.38
2019-06-08T00:23:17.876Z,131.20
2019-06-08T00:24:18.111Z,130.86
2019-06-08T00:25:19.164Z,130.93
2019-06-08T00:26:19.997Z,131.40
2019-06-08T00:27:20.246Z,131.23
2019-06-08T00:28:20.374Z,131.29
2019-06-08T00:29:20.292Z,131.36
2019-06-08T00:30:20.453Z,131.47
2019-06-08T00:31:21.654Z,131.44
2019-06-08T00:32:22.494Z,131.15
2019-06-08T00:33:22.633Z,131.54
2019-06-08T00:34:22.689Z,132.49
2019-06-08T00:35:22.766Z,131.26
2019-06-08T00:36:23.002Z,131.22
2019-06-08T00:37:23.159Z,131.61
2019-06-08T00:38:23.552Z,131.63
2019-06-08T00:39:25.127Z,130.89
2019-06-08T00:40:25.247Z,132.76
2019-06-08T00:41:25.353Z,131.55
2019-06-08T00:42:25.548Z,132.20
2019-06-08T00:43:25.600Z,130.75
2019-06-08T00:44:25.848Z,131.05
2019-06-08T00:45:26.244Z,130.73
2019-06-08T00:46:26.617Z,130.90
2019-06-08T00:47:42.039Z,131.06
2019-06-08T00:48:28.767Z,131.15
2019-06-08T00:49:29.043Z,131.85
2019-06-08T00:50:29.395Z,131.07
2019-06-08T00:51:29.801Z,132.00
2019-06-08T00:52:29.399Z,131.21
2019-06-08T00:53:29.623Z,131.61
2019-06-08T00:54:29.840Z,131.20
2019-06-08T00:55:30.170Z,131.49
2019-06-08T00:56:30.657Z,130.97
2019-06-08T00:57:30.936Z,131.54
2019-06-08T00:58:31.302Z,130.98
2019-06-08T00:59:31.676Z,130.49
2019-06-08T01:00:32.061Z,131.40
2019-06-08T01:01:32.464Z,130.93
2019-06-08T01:02:32.862Z,131.59
2019-06-08T01:03:33.285Z,132.61
2019-06-08T01:04:33.802Z,131.51
2019-06-08T01:05:34.039Z,131.83
2019-06-08T01:06:34.446Z,131.22
2019-06-08T01:07:34.817Z,131.65
2019-06-08T01:08:35.229Z,131.71
2019-06-08T01:09:35.826Z,131.57
2019-06-08T01:10:35.988Z,131.17
2019-06-08T01:11:36.412Z,130.82
2019-06-08T01:12:36.861Z,131.33
2019-06-08T01:13:37.151Z,132.25
2019-06-08T01:14:37.529Z,131.68
2019-06-08T01:15:37.917Z,131.11
2019-06-08T01:16:38.337Z,131.85
2019-06-08T01:17:38.690Z,131.53
2019-06-08T01:18:39.082Z,131.21
2019-06-08T01:19:39.453Z,131.09
2019-06-08T01:20:39.894Z,131.83
2019-06-08T01:21:40.261Z,131.12
2019-06-08T01:22:40.625Z,131.82
2019-06-08T01:23:41.025Z,131.62
2019-06-08T01:24:41.379Z,131.15
2019-06-08T01:25:41.781Z,131.30
2019-06-08T01:26:42.218Z,131.95
2019-06-08T01:27:42.576Z,131.68
2019-06-08T01:28:43.029Z,132.17
2019-06-08T01:29:43.423Z,131.09
2019-06-08T01:30:43.743Z,131.18
2019-06-08T01:31:44.138Z,131.80
2019-06-08T01:32:44.518Z,131.35
2019-06-08T01:33:44.940Z,131.67
2019-06-08T01:34:45.305Z,131.76
2019-06-08T01:35:45.664Z,132.00
2019-06-08T01:36:46.096Z,131.16
2019-06-08T01:37:46.599Z,131.40
2019-06-08T01:38:46.898Z,132.13
2019-06-08T01:39:47.264Z,131.21
2019-06-08T01:40:47.610Z,131.71
2019-06-08T01:41:48.038Z,131.22
2019-06-08T01:42:48.416Z,131.70
2019-06-08T01:43:48.829Z,131.00
2019-06-08T01:44:49.191Z,132.26
2019-06-08T01:45:50.663Z,131.22
2019-06-08T01:47:01.559Z,131.42
2019-06-08T01:47:57.438Z,131.12
2019-06-08T01:48:50.769Z,132.62
2019-06-08T01:49:51.132Z,131.62
2019-06-08T01:50:51.520Z,131.36
2019-06-08T01:51:51.899Z,131.47
2019-06-08T01:52:52.288Z,131.76
2019-06-08T01:53:52.771Z,131.06
2019-06-08T01:54:53.061Z,131.69
2019-06-08T01:55:53.459Z,131.43
2019-06-08T01:56:53.863Z,131.12
2019-06-08T01:57:54.217Z,131.14
2019-06-08T01:58:54.645Z,132.08
2019-06-08T01:59:55.013Z,133.07
2019-06-08T02:00:55.394Z,131.00
2019-06-08T02:01:55.847Z,131.57
2019-06-08T02:02:56.147Z,130.42
2019-06-08T02:03:56.608Z,132.37
2019-06-08T02:04:56.963Z,131.85
2019-06-08T02:05:57.345Z,132.22
2019-06-08T02:06:57.753Z,132.63
2019-06-08T02:07:58.151Z,133.16
2019-06-08T02:08:58.568Z,132.61
2019-06-08T02:09:58.943Z,133.74
2019-06-08T02:10:59.408Z,133.43
2019-06-08T02:11:59.708Z,133.23
2019-06-08T02:13:00.085Z,133.57
2019-06-08T02:14:00.521Z,134.36
2019-06-08T02:15:00.860Z,132.60
2019-06-08T02:16:01.239Z,134.46
2019-06-08T02:17:01.674Z,133.54
2019-06-08T02:18:02.032Z,133.60
2019-06-08T02:19:02.569Z,132.71
2019-06-08T02:20:02.796Z,133.47
2019-06-08T02:21:03.186Z,133.56
2019-06-08T02:22:03.622Z,134.25
2019-06-08T02:23:03.978Z,133.22
2019-06-08T02:24:04.416Z,132.37
2019-06-08T02:25:04.765Z,133.36
2019-06-08T02:26:05.118Z,133.66
2019-06-08T02:27:05.603Z,133.93
2019-06-08T02:28:05.908Z,133.56
2019-06-08T02:29:06.365Z,133.21
2019-06-08T02:30:06.709Z,133.36
2019-06-08T02:31:07.054Z,132.83
2019-06-08T02:32:07.506Z,133.37
2019-06-08T02:33:07.869Z,134.68
2019-06-08T02:34:08.292Z,133.57
2019-06-08T02:35:08.929Z,133.44
2019-06-08T02:36:09.015Z,134.54
2019-06-08T02:37:09.395Z,133.41
2019-06-08T02:38:09.786Z,133.30
2019-06-08T02:39:10.202Z,133.54
2019-06-08T02:40:10.585Z,132.33
2019-06-08T02:41:15.663Z,132.86
2019-06-08T02:42:11.375Z,134.55
2019-06-08T02:43:11.788Z,133.54
2019-06-08T02:44:12.156Z,133.03
2019-06-08T02:45:12.545Z,134.15
2019-06-08T02:46:13.144Z,133.12
2019-06-08T02:47:16.165Z,133.12
2019-06-08T02:48:13.695Z,133.67
2019-06-08T02:49:14.082Z,133.95
2019-06-08T02:50:14.472Z,133.58
2019-06-08T02:51:14.882Z,133.28
2019-06-08T02:52:15.363Z,132.99
2019-06-08T02:53:15.635Z,132.76
2019-06-08T02:54:16.017Z,133.28
2019-06-08T02:55:16.420Z,133.60
2019-06-08T02:56:16.807Z,132.77
2019-06-08T02:57:17.208Z,133.93
2019-06-08T02:58:17.587Z,133.49
2019-06-08T02:59:17.979Z,133.94
2019-06-08T03:00:18.493Z,133.47
2019-06-08T03:01:18.747Z,134.13
2019-06-08T03:02:19.161Z,133.11
2019-06-08T03:03:19.521Z,133.23
2019-06-08T03:04:19.930Z,105.69
2019-06-08T03:05:20.296Z,132.72
2019-06-08T03:06:20.692Z,132.72
2019-06-08T03:07:21.100Z,132.59
2019-06-08T03:08:21.519Z,133.90
2019-06-08T03:09:21.873Z,134.01
2019-06-08T03:10:22.295Z,133.10
2019-06-08T03:11:22.647Z,133.58
2019-06-08T03:12:23.027Z,105.69
2019-06-08T03:13:23.394Z,132.66
2019-06-08T03:14:23.801Z,132.62
2019-06-08T03:15:24.189Z,133.07
2019-06-08T03:16:24.615Z,133.17
2019-06-08T03:17:24.932Z,133.68
2019-06-08T03:18:25.314Z,132.04
2019-06-08T03:19:25.883Z,133.14
2019-06-08T03:20:26.109Z,132.44
2019-06-08T03:21:26.485Z,133.12
2019-06-08T03:22:26.892Z,132.05
2019-06-08T03:23:27.238Z,133.78
2019-06-08T03:24:27.702Z,132.80
2019-06-08T03:25:28.130Z,132.76
2019-06-08T03:26:28.425Z,133.21
2019-06-08T03:27:28.815Z,134.08
2019-06-08T03:28:29.185Z,133.01
2019-06-08T03:29:29.614Z,132.53
2019-06-08T03:30:29.998Z,133.41
2019-06-08T03:31:30.366Z,132.75
2019-06-08T03:32:30.763Z,133.10
2019-06-08T03:33:34.568Z,132.58
2019-06-08T03:34:34.834Z,105.69
2019-06-08T03:35:35.285Z,132.69
2019-06-08T03:36:35.236Z,133.36
2019-06-08T03:37:35.614Z,132.98
2019-06-08T03:38:33.687Z,133.26
2019-06-08T03:39:35.113Z,132.65
2019-06-08T03:40:33.979Z,133.64
2019-06-08T03:41:36.132Z,133.10
2019-06-08T03:42:34.637Z,132.97
2019-06-08T03:43:35.315Z,133.46
2019-06-08T03:44:36.158Z,133.47
2019-06-08T03:45:36.336Z,132.89
2019-06-08T03:46:36.348Z,132.77
2019-06-08T03:47:37.106Z,133.00
2019-06-08T03:48:37.181Z,132.88
2019-06-08T03:49:42.816Z,133.83
2019-06-08T03:50:39.631Z,133.07
2019-06-08T03:51:40.863Z,132.91
2019-06-08T03:52:39.977Z,132.54
2019-06-08T03:53:40.012Z,132.68
2019-06-08T03:54:40.693Z,132.54
2019-06-08T03:55:40.334Z,132.39
2019-06-08T03:56:40.183Z,132.81
2019-06-08T03:57:41.894Z,132.57
2019-06-08T03:58:42.578Z,133.51
2019-06-08T03:59:42.774Z,132.25
2019-06-08T04:00:42.402Z,132.84
2019-06-08T04:01:43.827Z,132.19
2019-06-08T04:02:44.102Z,133.07
2019-06-08T04:03:43.797Z,132.09
2019-06-08T04:04:43.710Z,133.42
2019-06-08T04:05:44.449Z,133.34
2019-06-08T04:06:45.592Z,105.69
2019-06-08T04:07:46.381Z,131.69
2019-06-08T04:08:44.878Z,133.15
2019-06-08T04:09:45.938Z,133.15
2019-06-08T04:10:46.790Z,132.39
2019-06-08T04:11:46.699Z,133.98
2019-06-08T04:12:46.327Z,132.46
2019-06-08T04:13:47.170Z,132.39
2019-06-08T04:14:47.157Z,131.96
2019-06-08T04:15:47.442Z,132.93
2019-06-08T04:16:47.798Z,132.93
2019-06-08T04:17:48.177Z,132.66
2019-06-08T04:18:50.252Z,132.62
2019-06-08T04:20:08.979Z,132.30
2019-06-08T04:20:51.476Z,132.85
2019-06-08T04:21:50.616Z,133.73
2019-06-08T04:22:50.580Z,132.22
2019-06-08T04:23:50.781Z,132.23
2019-06-08T04:24:50.901Z,132.30
2019-06-08T04:25:51.522Z,132.27
2019-06-08T04:26:51.669Z,133.35
2019-06-08T04:27:52.051Z,133.04
2019-06-08T04:28:52.470Z,133.20
2019-06-08T04:29:52.866Z,132.41
2019-06-08T04:30:53.238Z,132.06
2019-06-08T04:31:53.595Z,131.45
2019-06-08T04:32:53.986Z,132.57
2019-06-08T04:33:54.405Z,132.28
2019-06-08T04:34:54.800Z,132.37
2019-06-08T04:35:55.153Z,132.72
2019-06-08T04:36:55.571Z,132.49
2019-06-08T04:37:55.952Z,132.48
2019-06-08T04:38:56.400Z,105.69
2019-06-08T04:39:56.824Z,131.33
2019-06-08T04:40:57.099Z,131.40
2019-06-08T04:41:57.520Z,132.18
2019-06-08T04:42:57.903Z,105.69
2019-06-08T04:43:58.288Z,132.62
2019-06-08T04:44:58.689Z,105.69
2019-06-08T04:45:59.048Z,132.58
2019-06-08T04:46:59.438Z,105.69
2019-06-08T04:47:59.927Z,132.57
2019-06-08T04:49:00.221Z,105.69
2019-06-08T04:50:17.444Z,131.80
2019-06-08T04:51:01.979Z,132.06
2019-06-08T04:52:01.366Z,132.77
2019-06-08T04:53:01.779Z,132.06
2019-06-08T04:54:02.156Z,132.88
2019-06-08T04:55:02.547Z,132.33
2019-06-08T04:56:02.999Z,133.24
2019-06-08T04:57:03.295Z,132.20
2019-06-08T04:58:03.686Z,132.36
2019-06-08T04:59:04.099Z,133.33
2019-06-08T05:00:11.763Z,131.98
2019-06-08T05:01:05.843Z,131.59
2019-06-08T05:02:05.245Z,132.51
2019-06-08T05:03:05.600Z,131.79
2019-06-08T05:04:06.105Z,132.27
2019-06-08T05:05:06.428Z,131.76
2019-06-08T05:06:06.794Z,132.30
2019-06-08T05:07:07.187Z,132.03
2019-06-08T05:08:07.581Z,131.64
2019-06-08T05:09:07.943Z,132.01
2019-06-08T05:10:08.340Z,131.97
2019-06-08T05:11:08.725Z,131.83
2019-06-08T05:12:09.178Z,132.50
2019-06-08T05:13:09.559Z,131.90
2019-06-08T05:14:09.929Z,131.75
2019-06-08T05:15:10.303Z,132.74
2019-06-08T05:16:10.682Z,132.00
2019-06-08T05:17:11.081Z,131.72
2019-06-08T05:18:11.457Z,131.76
2019-06-08T05:19:11.861Z,132.11
2019-06-08T05:20:12.268Z,131.85
2019-06-08T05:21:12.667Z,131.74
2019-06-08T05:22:13.021Z,131.87
2019-06-08T05:23:13.391Z,132.39
2019-06-08T05:24:13.801Z,131.95
2019-06-08T05:25:14.175Z,132.51
2019-06-08T05:26:14.544Z,131.85
2019-06-08T05:27:14.966Z,131.69
2019-06-08T05:28:15.337Z,132.25
2019-06-08T05:29:15.935Z,131.90
2019-06-08T05:30:16.109Z,105.69
2019-06-08T05:31:16.499Z,105.69
2019-06-08T05:32:16.911Z,105.69
2019-06-08T05:33:17.289Z,105.69
2019-06-08T05:34:17.676Z,105.69
2019-06-08T05:35:18.123Z,105.69
2019-06-08T05:36:18.434Z,105.69
2019-06-08T05:37:18.890Z,105.69
2019-06-08T05:38:19.216Z,105.69
2019-06-08T05:39:19.604Z,105.69
2019-06-08T05:40:20.020Z,105.69
2019-06-08T05:41:23.798Z,105.69
2019-06-08T05:42:20.790Z,105.69
2019-06-08T05:43:21.155Z,105.69
2019-06-08T05:44:21.561Z,105.69
2019-06-08T05:45:22.089Z,105.69
2019-06-08T05:46:22.325Z,105.69
2019-06-08T05:47:22.741Z,105.69
2019-06-08T05:48:23.096Z,105.69
2019-06-08T05:49:23.577Z,105.69
2019-06-08T05:50:23.946Z,105.69
2019-06-08T05:51:24.295Z,105.69
2019-06-08T05:52:24.697Z,105.69
2019-06-08T05:53:25.090Z,105.69
2019-06-08T05:54:25.500Z,105.69
2019-06-08T05:55:25.899Z,105.69
2019-06-08T05:56:26.230Z,105.69
2019-06-08T05:57:26.639Z,105.69
2019-06-08T05:58:27.004Z,105.69
2019-06-08T05:59:27.389Z,105.69
2019-06-08T06:00:27.825Z,105.69
2019-06-08T06:01:28.173Z,105.69
2019-06-08T06:02:28.706Z,105.69
2019-06-08T06:03:28.921Z,105.69
2019-06-08T06:04:29.323Z,105.69
2019-06-08T06:05:30.041Z,105.69
2019-06-08T06:06:30.132Z,105.69
2019-06-08T06:07:30.527Z,105.69
2019-06-08T06:08:30.894Z,105.69
2019-06-08T06:09:31.297Z,105.69
2019-06-08T06:10:31.758Z,105.69
2019-06-08T06:11:32.048Z,105.69
2019-06-08T06:12:32.458Z,105.69
2019-06-08T06:13:32.819Z,105.69
2019-06-08T06:14:36.790Z,105.69
2019-06-08T06:15:33.622Z,105.69
2019-06-08T06:16:33.971Z,105.69
2019-06-08T06:17:34.420Z,105.69
2019-06-08T06:18:34.832Z,105.69
2019-06-08T06:19:35.141Z,105.69
2019-06-08T06:20:35.573Z,105.69
2019-06-08T06:21:35.907Z,105.69
2019-06-08T06:22:36.325Z,105.69
2019-06-08T06:23:36.707Z,105.69
2019-06-08T06:24:37.108Z,105.69
2019-06-08T06:25:37.513Z,105.69
2019-06-08T06:26:37.907Z,105.69
2019-06-08T06:27:38.314Z,105.69
2019-06-08T06:28:38.703Z,105.69
2019-06-08T06:29:39.035Z,105.69
2019-06-08T06:30:39.461Z,105.69
2019-06-08T06:31:39.820Z,105.69
2019-06-08T06:32:41.646Z,105.69
2019-06-08T06:33:41.852Z,105.69
2019-06-08T06:34:41.879Z,105.69
2019-06-08T06:35:41.674Z,105.69
2019-06-08T06:36:41.798Z,105.69
2019-06-08T06:37:42.127Z,105.69
2019-06-08T06:38:43.723Z,105.69
2019-06-08T06:39:43.962Z,105.69
2019-06-08T06:40:43.950Z,105.69
2019-06-08T06:41:44.054Z,105.69
2019-06-08T06:42:44.085Z,105.69
2019-06-08T06:43:45.823Z,105.69
2019-06-08T06:44:45.702Z,105.69
2019-06-08T06:45:46.079Z,105.69
2019-06-08T06:46:46.105Z,105.69
2019-06-08T06:47:46.422Z,105.69
2019-06-08T06:48:46.403Z,105.69
2019-06-08T06:49:46.810Z,105.69
2019-06-08T06:50:48.167Z,105.69
2019-06-08T06:51:48.407Z,105.69
2019-06-08T06:52:48.886Z,105.69
2019-06-08T06:53:48.814Z,105.69
2019-06-08T06:54:48.979Z,105.69
2019-06-08T06:55:49.169Z,105.69
2019-06-08T06:56:49.521Z,105.69
2019-06-08T06:57:51.414Z,105.69
2019-06-08T06:58:51.782Z,105.69
2019-06-08T06:59:51.961Z,105.69
2019-06-08T07:00:51.544Z,105.69
2019-06-08T07:01:53.664Z,105.69
2019-06-08T07:02:53.912Z,105.69
2019-06-08T07:03:52.255Z,105.69
2019-06-08T07:04:52.621Z,105.69
2019-06-08T07:05:54.121Z,105.69
2019-06-08T07:06:54.367Z,105.69
2019-06-08T07:07:54.473Z,105.69
2019-06-08T07:08:54.591Z,105.69
2019-06-08T07:09:54.962Z,105.69
2019-06-08T07:10:55.236Z,105.69
2019-06-08T07:11:56.467Z,105.69
2019-06-08T07:12:55.723Z,105.69
2019-06-08T07:13:56.133Z,131.80
2019-06-08T07:14:56.524Z,131.20
2019-06-08T07:15:58.125Z,132.13
2019-06-08T07:16:58.245Z,131.50
2019-06-08T07:17:58.613Z,133.30
2019-06-08T07:18:58.792Z,132.01
2019-06-08T07:19:58.867Z,132.11
2019-06-08T07:20:58.879Z,132.09
2019-06-08T07:21:59.213Z,132.51
2019-06-08T07:22:59.616Z,132.15
2019-06-08T07:24:00.030Z,131.90
2019-06-08T07:25:00.462Z,132.41
2019-06-08T07:26:00.815Z,131.70
2019-06-08T07:27:01.151Z,132.54
2019-06-08T07:28:01.541Z,131.90
2019-06-08T07:29:01.959Z,131.70
2019-06-08T07:30:02.483Z,132.06
2019-06-08T07:31:02.756Z,131.74
2019-06-08T07:32:03.107Z,132.39
2019-06-08T07:33:03.514Z,131.71
2019-06-08T07:34:03.891Z,131.98
2019-06-08T07:35:04.327Z,132.12
2019-06-08T07:36:05.761Z,132.14
2019-06-08T07:37:05.054Z,132.57
2019-06-08T07:38:05.459Z,132.04
2019-06-08T07:39:05.844Z,132.40
2019-06-08T07:40:06.206Z,131.87
2019-06-08T07:41:06.928Z,131.84
2019-06-08T07:42:07.028Z,131.93
2019-06-08T07:43:09.257Z,132.49
2019-06-08T07:44:08.032Z,132.25
2019-06-08T07:45:08.158Z,132.31
2019-06-08T07:46:08.578Z,132.65
2019-06-08T07:47:08.966Z,132.11
2019-06-08T07:48:09.373Z,132.62
2019-06-08T07:49:09.781Z,132.20
2019-06-08T07:50:10.240Z,132.53
2019-06-08T07:51:10.532Z,131.41
2019-06-08T07:52:11.113Z,131.73
2019-06-08T07:53:11.309Z,131.60
2019-06-08T07:54:11.715Z,131.78
2019-06-08T07:55:12.089Z,132.06
2019-06-08T07:56:12.496Z,131.85
2019-06-08T07:57:12.876Z,131.17
2019-06-08T07:58:13.387Z,132.36
2019-06-08T07:59:14.928Z,132.61
2019-06-08T08:00:14.043Z,131.75
2019-06-08T08:01:14.430Z,131.03
2019-06-08T08:02:14.831Z,131.99
2019-06-08T08:03:15.206Z,131.76
2019-06-08T08:04:15.612Z,131.99
2019-06-08T08:05:15.983Z,132.45
2019-06-08T08:06:16.420Z,131.92
2019-06-08T08:07:16.773Z,131.37
2019-06-08T08:08:17.174Z,105.69
2019-06-08T08:09:17.561Z,105.69
2019-06-08T08:10:17.990Z,105.69
2019-06-08T08:11:18.335Z,105.69
2019-06-08T08:12:18.730Z,105.69
2019-06-08T08:13:19.111Z,105.69
2019-06-08T08:14:19.610Z,105.69
2019-06-08T08:15:19.899Z,105.69
2019-06-08T08:16:20.441Z,105.69
2019-06-08T08:17:20.650Z,105.69
2019-06-08T08:18:21.008Z,105.69
2019-06-08T08:19:21.425Z,105.69
2019-06-08T08:20:21.814Z,105.69
2019-06-08T08:21:25.945Z,105.69
2019-06-08T08:22:25.907Z,105.69
2019-06-08T08:23:23.046Z,105.69
2019-06-08T08:24:23.362Z,105.69
2019-06-08T08:25:23.746Z,105.69
2019-06-08T08:26:24.152Z,105.69
2019-06-08T08:27:24.544Z,105.69
2019-06-08T08:28:24.911Z,105.69
2019-06-08T08:29:25.358Z,105.69
2019-06-08T08:30:28.266Z,105.69
2019-06-08T08:31:27.754Z,105.69
2019-06-08T08:32:28.242Z,105.69
2019-06-08T08:33:27.561Z,105.69
2019-06-08T08:34:28.377Z,105.69
2019-06-08T08:35:28.012Z,105.69
2019-06-08T08:36:28.808Z,105.69
2019-06-08T08:37:28.427Z,105.69
2019-06-08T08:38:28.804Z,105.69
2019-06-08T08:39:29.303Z,105.69
2019-06-08T08:40:29.555Z,105.69
2019-06-08T08:41:29.979Z,105.69
2019-06-08T08:42:30.375Z,105.69
2019-06-08T08:43:30.731Z,105.69
2019-06-08T08:44:31.148Z,105.69
2019-06-08T08:45:31.499Z,105.69
2019-06-08T08:46:31.905Z,105.69
2019-06-08T08:47:32.333Z,105.69
2019-06-08T08:48:32.668Z,105.69
2019-06-08T08:49:33.066Z,105.69
2019-06-08T08:50:33.453Z,105.69
2019-06-08T08:51:33.866Z,105.69
2019-06-08T08:52:37.233Z,105.69
2019-06-08T08:53:37.427Z,105.69
2019-06-08T08:54:37.548Z,105.69
2019-06-08T08:55:37.821Z,105.69
2019-06-08T08:56:38.150Z,105.69
2019-06-08T08:57:38.099Z,105.69
2019-06-08T08:58:38.093Z,105.69
2019-06-08T08:59:38.114Z,105.69
2019-06-08T09:00:40.831Z,105.69
2019-06-08T09:01:38.207Z,105.69
2019-06-08T09:02:38.177Z,105.69
2019-06-08T09:03:39.381Z,105.69
2019-06-08T09:04:39.062Z,105.69
2019-06-08T09:05:39.350Z,105.69
2019-06-08T09:06:39.731Z,105.69
2019-06-08T09:07:40.120Z,105.69
2019-06-08T09:08:40.474Z,105.69
2019-06-08T09:09:40.868Z,105.69
2019-06-08T09:10:41.293Z,105.69
2019-06-08T09:11:41.697Z,105.69
2019-06-08T09:12:42.181Z,105.69
2019-06-08T09:13:42.408Z,105.69
2019-06-08T09:14:42.809Z,105.69
2019-06-08T09:15:43.230Z,105.69
2019-06-08T09:16:43.633Z,105.69
2019-06-08T09:17:44.011Z,105.69
2019-06-08T09:18:44.380Z,105.69
2019-06-08T09:19:44.769Z,105.69
2019-06-08T09:20:47.737Z,105.69
2019-06-08T09:21:48.047Z,105.69
2019-06-08T09:22:53.958Z,105.69
2019-06-08T09:23:48.508Z,105.69
2019-06-08T09:24:48.504Z,105.69
2019-06-08T09:25:48.084Z,105.69
2019-06-08T09:26:47.732Z,105.69
2019-06-08T09:27:48.246Z,105.69
2019-06-08T09:28:48.335Z,105.69
2019-06-08T09:29:48.639Z,105.69
2019-06-08T09:30:49.058Z,105.69
2019-06-08T09:31:49.452Z,105.69
2019-06-08T09:32:49.830Z,105.69
2019-06-08T09:34:04.055Z,105.69
2019-06-08T09:34:52.953Z,105.69
2019-06-08T09:35:53.028Z,105.69
2019-06-08T09:36:52.583Z,105.69
2019-06-08T09:37:53.133Z,105.69
2019-06-08T09:38:53.138Z,105.69
2019-06-08T09:39:53.838Z,105.69
2019-06-08T09:40:53.398Z,105.69
2019-06-08T09:41:53.809Z,105.69
2019-06-08T09:42:55.883Z,105.69
2019-06-08T09:43:55.570Z,105.69
2019-06-08T09:44:55.474Z,105.69
2019-06-08T09:45:55.343Z,105.69
2019-06-08T09:46:58.402Z,105.69
2019-06-08T09:47:59.605Z,105.69
2019-06-08T09:48:58.542Z,105.69
2019-06-08T09:49:58.765Z,105.69
2019-06-08T09:50:59.386Z,105.69
2019-06-08T09:51:58.788Z,105.69
2019-06-08T09:53:13.124Z,105.69
2019-06-08T09:54:00.826Z,105.69
2019-06-08T09:54:59.246Z,105.69
2019-06-08T09:56:01.030Z,105.69
2019-06-08T09:57:02.130Z,105.69
2019-06-08T09:58:04.502Z,105.69
2019-06-08T09:59:02.779Z,105.69
2019-06-08T10:00:02.562Z,105.69
2019-06-08T10:01:02.897Z,105.69
2019-06-08T10:02:05.643Z,105.69
2019-06-08T10:03:03.028Z,105.69
2019-06-08T10:04:02.784Z,105.69
2019-06-08T10:05:04.020Z,105.69
2019-06-08T10:06:05.508Z,105.69
2019-06-08T10:07:05.286Z,105.69
2019-06-08T10:08:04.226Z,105.69
2019-06-08T10:09:04.824Z,105.69
2019-06-08T10:10:04.803Z,105.69
2019-06-08T10:11:05.939Z,105.69
2019-06-08T10:12:06.406Z,105.69
2019-06-08T10:13:09.198Z,105.69
2019-06-08T10:14:09.225Z,105.69
2019-06-08T10:15:08.018Z,105.69
2019-06-08T10:16:09.361Z,105.69
2019-06-08T10:17:08.819Z,105.69
2019-06-08T10:18:08.128Z,105.69
2019-06-08T10:19:10.221Z,131.89
2019-06-08T10:20:09.654Z,132.06
2019-06-08T10:21:09.408Z,131.33
2019-06-08T10:22:09.809Z,131.99
2019-06-08T10:23:26.864Z,131.76
2019-06-08T10:24:10.756Z,132.54
2019-06-08T10:25:11.049Z,132.79
2019-06-08T10:26:10.938Z,131.62
2019-06-08T10:27:11.790Z,132.00
2019-06-08T10:28:13.984Z,132.38
2019-06-08T10:29:11.678Z,129.61
2019-06-08T10:30:12.047Z,132.44
2019-06-08T10:31:12.449Z,131.94
2019-06-08T10:32:12.873Z,132.88
2019-06-08T10:33:13.222Z,131.62
2019-06-08T10:34:13.629Z,131.64
2019-06-08T10:35:14.116Z,133.07
2019-06-08T10:36:14.383Z,131.93
2019-06-08T10:37:14.786Z,130.89
2019-06-08T10:38:17.887Z,132.36
2019-06-08T10:39:15.575Z,131.54
2019-06-08T10:40:18.554Z,132.06
2019-06-08T10:41:19.121Z,132.58
2019-06-08T10:42:17.927Z,132.16
2019-06-08T10:43:17.492Z,131.74
2019-06-08T10:44:18.065Z,131.79
2019-06-08T10:45:18.328Z,131.92
2019-06-08T10:46:20.500Z,130.64
2019-06-08T10:47:18.629Z,130.68
2019-06-08T10:48:19.031Z,130.99
2019-06-08T10:49:19.485Z,132.03
2019-06-08T10:50:19.795Z,132.43
2019-06-08T10:51:20.290Z,131.35
2019-06-08T10:52:20.616Z,131.96
2019-06-08T10:53:21.013Z,131.94
2019-06-08T10:54:21.401Z,131.55
2019-06-08T10:55:21.767Z,131.88
2019-06-08T10:56:22.159Z,132.08
2019-06-08T10:57:22.539Z,131.06
2019-06-08T10:58:22.932Z,132.20
2019-06-08T10:59:23.574Z,131.43
2019-06-08T11:00:24.512Z,132.28
2019-06-08T11:01:24.102Z,132.12
2019-06-08T11:02:24.491Z,132.15
2019-06-08T11:03:24.883Z,131.54
2019-06-08T11:04:25.306Z,132.68
2019-06-08T11:05:27.869Z,131.96
2019-06-08T11:06:26.070Z,130.96
2019-06-08T11:07:27.918Z,132.31
2019-06-08T11:08:27.382Z,131.95
2019-06-08T11:09:28.326Z,132.56
2019-06-08T11:10:27.603Z,132.53
2019-06-08T11:11:28.401Z,131.90
2019-06-08T11:12:28.456Z,130.63
2019-06-08T11:13:28.762Z,132.91
2019-06-08T11:14:29.157Z,132.29
2019-06-08T11:15:30.037Z,132.78
2019-06-08T11:16:30.009Z,132.23
2019-06-08T11:17:30.286Z,132.17
2019-06-08T11:18:30.695Z,132.41
2019-06-08T11:19:31.104Z,132.21
2019-06-08T11:20:31.543Z,132.04
2019-06-08T11:21:31.859Z,130.87
2019-06-08T11:22:32.261Z,131.20
2019-06-08T11:23:32.660Z,131.80
2019-06-08T11:24:33.078Z,132.63
2019-06-08T11:25:33.428Z,131.66
2019-06-08T11:26:33.807Z,132.81
2019-06-08T11:27:34.209Z,132.36
2019-06-08T11:28:34.587Z,132.01
2019-06-08T11:29:34.971Z,132.44
2019-06-08T11:30:38.169Z,132.25
2019-06-08T11:31:35.766Z,132.41
2019-06-08T11:32:38.195Z,132.22
2019-06-08T11:33:38.749Z,132.40
2019-06-08T11:34:37.509Z,131.37
2019-06-08T11:35:38.287Z,131.85
2019-06-08T11:36:39.296Z,132.39
2019-06-08T11:37:38.742Z,131.91
2019-06-08T11:38:38.479Z,129.63
2019-06-08T11:39:38.897Z,131.00
2019-06-08T11:40:39.264Z,113.28
2019-06-08T11:41:39.738Z,132.34
2019-06-08T11:42:40.060Z,132.32
2019-06-08T11:43:41.377Z,132.40
2019-06-08T11:44:40.820Z,129.72
2019-06-08T11:45:41.183Z,132.04
2019-06-08T11:46:42.539Z,133.59
2019-06-08T11:47:41.984Z,132.88
2019-06-08T11:48:42.383Z,131.97
2019-06-08T11:49:42.869Z,132.77
2019-06-08T11:50:43.153Z,132.77
2019-06-08T11:51:43.552Z,132.53
2019-06-08T11:52:43.963Z,132.27
2019-06-08T11:53:44.309Z,131.39
2019-06-08T11:54:44.715Z,132.67
2019-06-08T11:55:45.098Z,130.34
2019-06-08T11:56:48.080Z,129.80
2019-06-08T11:57:48.722Z,131.38
2019-06-08T11:58:48.452Z,131.96
2019-06-08T11:59:48.415Z,133.42
2019-06-08T12:00:48.868Z,131.89
2019-06-08T12:01:50.057Z,132.15
2019-06-08T12:02:48.484Z,132.63
2019-06-08T12:03:48.361Z,132.99
2019-06-08T12:04:48.588Z,131.43
2019-06-08T12:05:50.904Z,132.84
2019-06-08T12:06:49.323Z,131.76
2019-06-08T12:07:49.726Z,132.84
2019-06-08T12:08:50.097Z,132.89
2019-06-08T12:09:50.519Z,132.28
2019-06-08T12:10:50.898Z,132.07
2019-06-08T12:11:51.275Z,131.30
2019-06-08T12:12:51.675Z,130.98
2019-06-08T12:13:52.057Z,132.86
2019-06-08T12:14:52.505Z,130.60
2019-06-08T12:15:52.859Z,132.06
2019-06-08T12:16:53.237Z,133.56
2019-06-08T12:17:53.639Z,132.96
2019-06-08T12:18:54.006Z,131.61
2019-06-08T12:19:54.386Z,133.09
2019-06-08T12:20:54.851Z,130.95
2019-06-08T12:21:57.841Z,131.78
2019-06-08T12:22:55.745Z,132.37
2019-06-08T12:23:55.949Z,132.78
2019-06-08T12:24:56.348Z,133.20
2019-06-08T12:25:56.790Z,131.34
2019-06-08T12:27:00.150Z,132.44
2019-06-08T12:27:58.643Z,132.85
2019-06-08T12:29:01.035Z,130.17
2019-06-08T12:29:58.742Z,133.00
2019-06-08T12:31:00.826Z,132.88
2019-06-08T12:32:00.441Z,133.32
2019-06-08T12:32:59.511Z,133.27